sensor_id;sensor_type;location;lat;lon;timestamp;P1;durP1;ratioP1;P2;durP2;ratioP2
51304;SDS011;37392;50.964;6.952;2023-02-11T00:00:55;35.80;;;20.00;;
51304;SDS011;37392;50.964;6.952;2023-02-11T00:03:20;47.28;;;22.38;;
51304;SDS011;37392;50.964;6.952;2023-02-11T00:05:55;38.53;;;20.15;;
51304;SDS011;37392;50.964;6.952;2023-02-11T00:08:25;38.25;;;19.00;;
51304;SDS011;37392;50.964;6.952;2023-02-11T00:10:54;40.60;;;19.92;;
51304;SDS011;37392;50.964;6.952;2023-02-11T00:15:48;43.58;;;19.42;;
51304;SDS011;37392;50.964;6.952;2023-02-11T00:18:14;44.38;;;19.50;;
51304;SDS011;37392;50.964;6.952;2023-02-11T00:20:40;37.25;;;18.70;;
51304;SDS011;37392;50.964;6.952;2023-02-11T00:23:06;43.63;;;20.75;;
51304;SDS011;37392;50.964;6.952;2023-02-11T00:25:32;39.65;;;19.95;;
51304;SDS011;37392;50.964;6.952;2023-02-11T00:27:58;36.70;;;19.25;;
51304;SDS011;37392;50.964;6.952;2023-02-11T00:30:24;39.70;;;18.30;;
51304;SDS011;37392;50.964;6.952;2023-02-11T00:32:49;52.83;;;21.35;;
51304;SDS011;37392;50.964;6.952;2023-02-11T00:35:15;30.58;;;16.75;;
51304;SDS011;37392;50.964;6.952;2023-02-11T00:37:41;34.83;;;17.55;;
51304;SDS011;37392;50.964;6.952;2023-02-11T00:40:07;39.33;;;17.83;;
51304;SDS011;37392;50.964;6.952;2023-02-11T00:42:33;42.35;;;19.35;;
51304;SDS011;37392;50.964;6.952;2023-02-11T00:45:02;38.03;;;20.25;;
51304;SDS011;37392;50.964;6.952;2023-02-11T00:47:28;35.72;;;18.75;;
51304;SDS011;37392;50.964;6.952;2023-02-11T00:49:53;36.90;;;19.40;;
51304;SDS011;37392;50.964;6.952;2023-02-11T00:52:19;40.65;;;18.48;;
51304;SDS011;37392;50.964;6.952;2023-02-11T00:54:45;38.75;;;19.42;;
51304;SDS011;37392;50.964;6.952;2023-02-11T00:57:10;41.08;;;17.73;;
51304;SDS011;37392;50.964;6.952;2023-02-11T00:59:36;46.13;;;17.27;;
51304;SDS011;37392;50.964;6.952;2023-02-11T01:02:01;39.72;;;19.23;;
51304;SDS011;37392;50.964;6.952;2023-02-11T01:04:27;44.88;;;18.23;;
51304;SDS011;37392;50.964;6.952;2023-02-11T01:06:53;42.25;;;19.95;;
51304;SDS011;37392;50.964;6.952;2023-02-11T01:09:18;40.03;;;19.83;;
51304;SDS011;37392;50.964;6.952;2023-02-11T01:11:45;39.45;;;20.13;;
51304;SDS011;37392;50.964;6.952;2023-02-11T01:14:11;36.85;;;19.73;;
51304;SDS011;37392;50.964;6.952;2023-02-11T01:16:37;38.00;;;19.10;;
51304;SDS011;37392;50.964;6.952;2023-02-11T01:19:02;41.92;;;19.23;;
51304;SDS011;37392;50.964;6.952;2023-02-11T01:21:28;40.13;;;21.00;;
51304;SDS011;37392;50.964;6.952;2023-02-11T01:23:54;39.33;;;21.17;;
51304;SDS011;37392;50.964;6.952;2023-02-11T01:26:19;38.92;;;20.05;;
51304;SDS011;37392;50.964;6.952;2023-02-11T01:28:45;47.25;;;21.52;;
51304;SDS011;37392;50.964;6.952;2023-02-11T01:31:10;34.00;;;18.75;;
51304;SDS011;37392;50.964;6.952;2023-02-11T01:33:36;36.17;;;18.77;;
51304;SDS011;37392;50.964;6.952;2023-02-11T01:36:02;38.72;;;19.85;;
51304;SDS011;37392;50.964;6.952;2023-02-11T01:38:29;49.47;;;22.30;;
51304;SDS011;37392;50.964;6.952;2023-02-11T01:41:07;41.33;;;21.35;;
51304;SDS011;37392;50.964;6.952;2023-02-11T01:43:36;38.38;;;20.13;;
51304;SDS011;37392;50.964;6.952;2023-02-11T01:48:45;37.03;;;19.77;;
51304;SDS011;37392;50.964;6.952;2023-02-11T01:51:19;43.83;;;21.38;;
51304;SDS011;37392;50.964;6.952;2023-02-11T01:53:47;40.05;;;20.58;;
51304;SDS011;37392;50.964;6.952;2023-02-11T01:56:33;44.47;;;22.05;;
51304;SDS011;37392;50.964;6.952;2023-02-11T01:59:24;43.22;;;20.92;;
51304;SDS011;37392;50.964;6.952;2023-02-11T02:01:56;43.75;;;20.92;;
51304;SDS011;37392;50.964;6.952;2023-02-11T02:04:26;36.17;;;19.00;;
51304;SDS011;37392;50.964;6.952;2023-02-11T02:06:59;39.38;;;21.05;;
51304;SDS011;37392;50.964;6.952;2023-02-11T02:09:33;37.42;;;21.20;;
51304;SDS011;37392;50.964;6.952;2023-02-11T02:12:04;39.53;;;20.52;;
51304;SDS011;37392;50.964;6.952;2023-02-11T02:14:30;39.72;;;20.27;;
51304;SDS011;37392;50.964;6.952;2023-02-11T02:16:55;44.47;;;22.98;;
51304;SDS011;37392;50.964;6.952;2023-02-11T02:19:44;39.78;;;20.80;;
51304;SDS011;37392;50.964;6.952;2023-02-11T02:30:47;35.80;;;20.05;;
51304;SDS011;37392;50.964;6.952;2023-02-11T02:36:13;39.60;;;20.13;;
51304;SDS011;37392;50.964;6.952;2023-02-11T02:38:54;46.28;;;21.25;;
51304;SDS011;37392;50.964;6.952;2023-02-11T02:41:35;51.88;;;22.00;;
51304;SDS011;37392;50.964;6.952;2023-02-11T02:44:03;39.42;;;19.67;;
51304;SDS011;37392;50.964;6.952;2023-02-11T02:46:30;41.03;;;20.63;;
51304;SDS011;37392;50.964;6.952;2023-02-11T02:48:57;41.75;;;19.65;;
51304;SDS011;37392;50.964;6.952;2023-02-11T02:57:12;48.03;;;23.38;;
51304;SDS011;37392;50.964;6.952;2023-02-11T03:06:28;50.80;;;25.75;;
51304;SDS011;37392;50.964;6.952;2023-02-11T03:09:05;51.78;;;24.48;;
51304;SDS011;37392;50.964;6.952;2023-02-11T03:11:48;53.90;;;25.90;;
51304;SDS011;37392;50.964;6.952;2023-02-11T03:14:14;48.53;;;22.98;;
51304;SDS011;37392;50.964;6.952;2023-02-11T03:16:42;59.50;;;27.25;;
51304;SDS011;37392;50.964;6.952;2023-02-11T03:19:14;54.67;;;25.77;;
51304;SDS011;37392;50.964;6.952;2023-02-11T03:21:46;49.78;;;24.02;;
51304;SDS011;37392;50.964;6.952;2023-02-11T03:24:15;60.33;;;27.52;;
51304;SDS011;37392;50.964;6.952;2023-02-11T03:26:53;60.03;;;26.70;;
51304;SDS011;37392;50.964;6.952;2023-02-11T03:29:30;55.80;;;26.58;;
51304;SDS011;37392;50.964;6.952;2023-02-11T03:32:24;59.53;;;27.77;;
51304;SDS011;37392;50.964;6.952;2023-02-11T03:34:59;53.97;;;26.05;;
51304;SDS011;37392;50.964;6.952;2023-02-11T03:37:53;56.45;;;24.48;;
51304;SDS011;37392;50.964;6.952;2023-02-11T03:40:34;57.58;;;25.83;;
51304;SDS011;37392;50.964;6.952;2023-02-11T03:43:07;68.45;;;28.17;;
51304;SDS011;37392;50.964;6.952;2023-02-11T03:45:41;57.00;;;25.90;;
51304;SDS011;37392;50.964;6.952;2023-02-11T03:48:11;51.97;;;25.85;;
51304;SDS011;37392;50.964;6.952;2023-02-11T03:50:42;48.03;;;23.10;;
51304;SDS011;37392;50.964;6.952;2023-02-11T03:53:11;51.03;;;25.30;;
51304;SDS011;37392;50.964;6.952;2023-02-11T03:55:39;55.22;;;25.60;;
51304;SDS011;37392;50.964;6.952;2023-02-11T03:58:07;53.55;;;25.33;;
51304;SDS011;37392;50.964;6.952;2023-02-11T04:00:34;58.85;;;27.90;;
51304;SDS011;37392;50.964;6.952;2023-02-11T04:03:05;51.80;;;25.35;;
51304;SDS011;37392;50.964;6.952;2023-02-11T04:05:32;53.20;;;25.38;;
51304;SDS011;37392;50.964;6.952;2023-02-11T04:07:58;57.58;;;25.00;;
51304;SDS011;37392;50.964;6.952;2023-02-11T04:10:23;51.97;;;25.25;;
51304;SDS011;37392;50.964;6.952;2023-02-11T04:12:49;57.13;;;25.65;;
51304;SDS011;37392;50.964;6.952;2023-02-11T04:15:14;44.22;;;23.02;;
51304;SDS011;37392;50.964;6.952;2023-02-11T04:17:40;43.97;;;21.92;;
51304;SDS011;37392;50.964;6.952;2023-02-11T04:20:07;52.45;;;22.58;;
51304;SDS011;37392;50.964;6.952;2023-02-11T04:22:33;49.70;;;23.23;;
51304;SDS011;37392;50.964;6.952;2023-02-11T04:24:59;49.47;;;22.40;;
51304;SDS011;37392;50.964;6.952;2023-02-11T04:27:25;50.03;;;22.27;;
51304;SDS011;37392;50.964;6.952;2023-02-11T04:29:50;48.83;;;25.90;;
51304;SDS011;37392;50.964;6.952;2023-02-11T04:32:16;48.95;;;24.02;;
51304;SDS011;37392;50.964;6.952;2023-02-11T04:34:42;50.28;;;23.73;;
51304;SDS011;37392;50.964;6.952;2023-02-11T04:37:07;49.05;;;22.65;;
51304;SDS011;37392;50.964;6.952;2023-02-11T04:39:33;57.53;;;23.60;;
51304;SDS011;37392;50.964;6.952;2023-02-11T04:41:59;57.45;;;25.38;;
51304;SDS011;37392;50.964;6.952;2023-02-11T04:44:24;52.45;;;23.83;;
51304;SDS011;37392;50.964;6.952;2023-02-11T04:46:50;44.13;;;21.35;;
51304;SDS011;37392;50.964;6.952;2023-02-11T04:49:16;46.03;;;22.33;;
51304;SDS011;37392;50.964;6.952;2023-02-11T04:51:42;49.65;;;22.67;;
51304;SDS011;37392;50.964;6.952;2023-02-11T04:54:09;48.53;;;22.58;;
51304;SDS011;37392;50.964;6.952;2023-02-11T04:56:35;47.35;;;23.15;;
51304;SDS011;37392;50.964;6.952;2023-02-11T04:59:01;47.05;;;20.00;;
51304;SDS011;37392;50.964;6.952;2023-02-11T05:01:26;45.08;;;21.10;;
51304;SDS011;37392;50.964;6.952;2023-02-11T05:03:52;54.10;;;21.85;;
51304;SDS011;37392;50.964;6.952;2023-02-11T05:06:18;41.47;;;21.25;;
51304;SDS011;37392;50.964;6.952;2023-02-11T05:08:43;44.65;;;21.80;;
51304;SDS011;37392;50.964;6.952;2023-02-11T05:11:16;50.70;;;22.00;;
51304;SDS011;37392;50.964;6.952;2023-02-11T05:13:45;51.10;;;21.45;;
51304;SDS011;37392;50.964;6.952;2023-02-11T05:16:11;44.65;;;21.90;;
51304;SDS011;37392;50.964;6.952;2023-02-11T05:18:38;38.17;;;20.80;;
51304;SDS011;37392;50.964;6.952;2023-02-11T05:21:10;41.35;;;20.75;;
51304;SDS011;37392;50.964;6.952;2023-02-11T05:23:38;43.97;;;22.95;;
51304;SDS011;37392;50.964;6.952;2023-02-11T05:26:04;51.58;;;22.90;;
51304;SDS011;37392;50.964;6.952;2023-02-11T05:28:31;50.90;;;23.10;;
51304;SDS011;37392;50.964;6.952;2023-02-11T05:30:57;43.00;;;20.88;;
51304;SDS011;37392;50.964;6.952;2023-02-11T05:33:23;56.05;;;20.00;;
51304;SDS011;37392;50.964;6.952;2023-02-11T05:35:49;51.58;;;22.25;;
51304;SDS011;37392;50.964;6.952;2023-02-11T05:38:14;43.15;;;20.50;;
51304;SDS011;37392;50.964;6.952;2023-02-11T05:40:40;53.53;;;21.90;;
51304;SDS011;37392;50.964;6.952;2023-02-11T05:43:06;46.80;;;21.33;;
51304;SDS011;37392;50.964;6.952;2023-02-11T05:45:32;52.60;;;21.25;;
51304;SDS011;37392;50.964;6.952;2023-02-11T05:47:58;45.00;;;20.70;;
51304;SDS011;37392;50.964;6.952;2023-02-11T05:50:23;50.45;;;22.02;;
51304;SDS011;37392;50.964;6.952;2023-02-11T05:52:49;60.95;;;23.45;;
51304;SDS011;37392;50.964;6.952;2023-02-11T05:55:15;47.72;;;21.58;;
51304;SDS011;37392;50.964;6.952;2023-02-11T05:57:41;53.08;;;23.13;;
51304;SDS011;37392;50.964;6.952;2023-02-11T06:00:07;54.67;;;24.27;;
51304;SDS011;37392;50.964;6.952;2023-02-11T06:02:33;47.05;;;22.88;;
51304;SDS011;37392;50.964;6.952;2023-02-11T06:04:59;43.55;;;21.10;;
51304;SDS011;37392;50.964;6.952;2023-02-11T06:07:24;57.08;;;23.42;;
51304;SDS011;37392;50.964;6.952;2023-02-11T06:09:50;51.03;;;24.17;;
51304;SDS011;37392;50.964;6.952;2023-02-11T06:12:16;49.00;;;23.50;;
51304;SDS011;37392;50.964;6.952;2023-02-11T06:14:41;58.45;;;25.10;;
51304;SDS011;37392;50.964;6.952;2023-02-11T06:17:07;55.67;;;25.90;;
51304;SDS011;37392;50.964;6.952;2023-02-11T06:19:32;56.45;;;25.05;;
51304;SDS011;37392;50.964;6.952;2023-02-11T06:21:58;62.33;;;27.38;;
51304;SDS011;37392;50.964;6.952;2023-02-11T06:24:23;47.33;;;21.80;;
51304;SDS011;37392;50.964;6.952;2023-02-11T06:26:49;51.30;;;25.27;;
51304;SDS011;37392;50.964;6.952;2023-02-11T06:29:15;50.22;;;21.33;;
51304;SDS011;37392;50.964;6.952;2023-02-11T06:31:41;47.60;;;24.95;;
51304;SDS011;37392;50.964;6.952;2023-02-11T06:34:07;58.95;;;25.45;;
51304;SDS011;37392;50.964;6.952;2023-02-11T06:36:34;58.40;;;25.80;;
51304;SDS011;37392;50.964;6.952;2023-02-11T06:39:02;54.35;;;22.63;;
51304;SDS011;37392;50.964;6.952;2023-02-11T06:41:27;61.05;;;24.33;;
51304;SDS011;37392;50.964;6.952;2023-02-11T06:43:53;54.72;;;25.30;;
51304;SDS011;37392;50.964;6.952;2023-02-11T06:46:19;54.00;;;24.00;;
51304;SDS011;37392;50.964;6.952;2023-02-11T06:48:44;56.03;;;25.15;;
51304;SDS011;37392;50.964;6.952;2023-02-11T06:51:10;45.13;;;23.38;;
51304;SDS011;37392;50.964;6.952;2023-02-11T06:53:39;53.47;;;25.10;;
51304;SDS011;37392;50.964;6.952;2023-02-11T06:56:10;47.67;;;24.63;;
51304;SDS011;37392;50.964;6.952;2023-02-11T06:58:41;61.33;;;26.45;;
51304;SDS011;37392;50.964;6.952;2023-02-11T07:01:09;54.88;;;26.02;;
51304;SDS011;37392;50.964;6.952;2023-02-11T07:03:38;47.05;;;25.85;;
51304;SDS011;37392;50.964;6.952;2023-02-11T07:06:11;52.08;;;23.35;;
51304;SDS011;37392;50.964;6.952;2023-02-11T07:08:40;50.07;;;25.93;;
51304;SDS011;37392;50.964;6.952;2023-02-11T07:11:24;56.90;;;24.83;;
51304;SDS011;37392;50.964;6.952;2023-02-11T07:13:52;54.10;;;24.50;;
51304;SDS011;37392;50.964;6.952;2023-02-11T07:16:20;57.10;;;26.60;;
51304;SDS011;37392;50.964;6.952;2023-02-11T07:18:46;61.90;;;28.63;;
51304;SDS011;37392;50.964;6.952;2023-02-11T07:21:13;52.78;;;25.20;;
51304;SDS011;37392;50.964;6.952;2023-02-11T07:23:42;44.53;;;23.95;;
51304;SDS011;37392;50.964;6.952;2023-02-11T07:26:13;49.70;;;26.15;;
51304;SDS011;37392;50.964;6.952;2023-02-11T07:28:43;57.75;;;25.65;;
51304;SDS011;37392;50.964;6.952;2023-02-11T07:31:13;60.65;;;26.33;;
51304;SDS011;37392;50.964;6.952;2023-02-11T07:33:42;59.10;;;27.23;;
51304;SDS011;37392;50.964;6.952;2023-02-11T07:36:11;60.88;;;28.63;;
51304;SDS011;37392;50.964;6.952;2023-02-11T07:38:38;65.78;;;29.50;;
51304;SDS011;37392;50.964;6.952;2023-02-11T07:41:05;56.25;;;30.25;;
51304;SDS011;37392;50.964;6.952;2023-02-11T07:43:35;55.80;;;29.45;;
51304;SDS011;37392;50.964;6.952;2023-02-11T07:46:02;71.00;;;30.40;;
51304;SDS011;37392;50.964;6.952;2023-02-11T07:48:29;60.97;;;29.40;;
51304;SDS011;37392;50.964;6.952;2023-02-11T07:50:56;74.30;;;35.65;;
51304;SDS011;37392;50.964;6.952;2023-02-11T07:53:43;64.85;;;31.13;;
51304;SDS011;37392;50.964;6.952;2023-02-11T07:56:09;64.75;;;30.55;;
51304;SDS011;37392;50.964;6.952;2023-02-11T07:58:36;57.38;;;28.33;;
51304;SDS011;37392;50.964;6.952;2023-02-11T08:01:02;63.20;;;30.48;;
51304;SDS011;37392;50.964;6.952;2023-02-11T08:03:30;58.17;;;28.77;;
51304;SDS011;37392;50.964;6.952;2023-02-11T08:05:57;58.47;;;27.83;;
51304;SDS011;37392;50.964;6.952;2023-02-11T08:08:26;65.20;;;28.08;;
51304;SDS011;37392;50.964;6.952;2023-02-11T08:10:52;59.80;;;27.63;;
51304;SDS011;37392;50.964;6.952;2023-02-11T08:13:17;66.85;;;29.17;;
51304;SDS011;37392;50.964;6.952;2023-02-11T08:15:43;70.10;;;31.17;;
51304;SDS011;37392;50.964;6.952;2023-02-11T08:18:08;59.30;;;28.52;;
51304;SDS011;37392;50.964;6.952;2023-02-11T08:20:34;70.93;;;29.23;;
51304;SDS011;37392;50.964;6.952;2023-02-11T08:23:00;54.85;;;29.67;;
51304;SDS011;37392;50.964;6.952;2023-02-11T08:25:26;64.90;;;28.55;;
51304;SDS011;37392;50.964;6.952;2023-02-11T08:27:52;58.90;;;27.75;;
51304;SDS011;37392;50.964;6.952;2023-02-11T08:30:18;65.00;;;29.77;;
51304;SDS011;37392;50.964;6.952;2023-02-11T08:32:44;63.80;;;30.05;;
51304;SDS011;37392;50.964;6.952;2023-02-11T08:35:10;65.93;;;30.23;;
51304;SDS011;37392;50.964;6.952;2023-02-11T08:37:36;71.18;;;31.70;;
51304;SDS011;37392;50.964;6.952;2023-02-11T08:40:02;65.38;;;29.25;;
51304;SDS011;37392;50.964;6.952;2023-02-11T08:42:29;69.07;;;31.55;;
51304;SDS011;37392;50.964;6.952;2023-02-11T08:44:54;77.93;;;30.73;;
51304;SDS011;37392;50.964;6.952;2023-02-11T08:47:20;71.07;;;29.23;;
51304;SDS011;37392;50.964;6.952;2023-02-11T08:49:45;65.15;;;30.75;;
51304;SDS011;37392;50.964;6.952;2023-02-11T08:52:11;66.82;;;30.05;;
51304;SDS011;37392;50.964;6.952;2023-02-11T08:54:37;60.35;;;28.08;;
51304;SDS011;37392;50.964;6.952;2023-02-11T08:57:04;67.43;;;29.58;;
51304;SDS011;37392;50.964;6.952;2023-02-11T08:59:29;65.07;;;29.42;;
51304;SDS011;37392;50.964;6.952;2023-02-11T09:01:55;69.22;;;29.42;;
51304;SDS011;37392;50.964;6.952;2023-02-11T09:04:22;74.57;;;31.38;;
51304;SDS011;37392;50.964;6.952;2023-02-11T09:06:47;74.97;;;33.45;;
51304;SDS011;37392;50.964;6.952;2023-02-11T09:09:14;66.22;;;30.10;;
51304;SDS011;37392;50.964;6.952;2023-02-11T09:11:42;63.90;;;27.33;;
51304;SDS011;37392;50.964;6.952;2023-02-11T09:14:13;66.90;;;30.23;;
51304;SDS011;37392;50.964;6.952;2023-02-11T09:16:44;50.50;;;26.65;;
51304;SDS011;37392;50.964;6.952;2023-02-11T09:19:09;57.22;;;25.15;;
51304;SDS011;37392;50.964;6.952;2023-02-11T09:21:35;56.08;;;29.02;;
51304;SDS011;37392;50.964;6.952;2023-02-11T09:24:01;60.92;;;28.77;;
51304;SDS011;37392;50.964;6.952;2023-02-11T09:26:27;62.97;;;28.30;;
51304;SDS011;37392;50.964;6.952;2023-02-11T09:28:55;65.63;;;29.25;;
51304;SDS011;37392;50.964;6.952;2023-02-11T09:31:22;63.00;;;27.55;;
51304;SDS011;37392;50.964;6.952;2023-02-11T09:33:52;58.42;;;29.02;;
51304;SDS011;37392;50.964;6.952;2023-02-11T09:38:50;65.10;;;28.38;;
51304;SDS011;37392;50.964;6.952;2023-02-11T09:43:57;52.58;;;25.05;;
51304;SDS011;37392;50.964;6.952;2023-02-11T09:46:29;53.22;;;26.88;;
51304;SDS011;37392;50.964;6.952;2023-02-11T09:48:59;68.40;;;30.65;;
51304;SDS011;37392;50.964;6.952;2023-02-11T09:51:32;64.65;;;28.15;;
51304;SDS011;37392;50.964;6.952;2023-02-11T09:54:27;71.35;;;33.53;;
51304;SDS011;37392;50.964;6.952;2023-02-11T09:57:03;55.67;;;29.88;;
51304;SDS011;37392;50.964;6.952;2023-02-11T09:59:30;57.25;;;28.15;;
51304;SDS011;37392;50.964;6.952;2023-02-11T10:02:00;51.45;;;26.63;;
51304;SDS011;37392;50.964;6.952;2023-02-11T10:18:41;53.00;;;26.23;;
51304;SDS011;37392;50.964;6.952;2023-02-11T10:24:36;60.63;;;30.17;;
51304;SDS011;37392;50.964;6.952;2023-02-11T10:27:16;54.65;;;24.38;;
51304;SDS011;37392;50.964;6.952;2023-02-11T10:29:55;51.63;;;26.02;;
51304;SDS011;37392;50.964;6.952;2023-02-11T10:32:43;48.78;;;24.10;;
51304;SDS011;37392;50.964;6.952;2023-02-11T10:35:16;46.33;;;23.88;;
51304;SDS011;37392;50.964;6.952;2023-02-11T10:37:45;50.30;;;27.83;;
51304;SDS011;37392;50.964;6.952;2023-02-11T10:40:13;63.00;;;31.70;;
51304;SDS011;37392;50.964;6.952;2023-02-11T10:42:42;50.08;;;29.10;;
51304;SDS011;37392;50.964;6.952;2023-02-11T10:45:18;54.08;;;26.15;;
51304;SDS011;37392;50.964;6.952;2023-02-11T10:53:35;46.72;;;25.02;;
51304;SDS011;37392;50.964;6.952;2023-02-11T10:56:01;52.38;;;26.58;;
51304;SDS011;37392;50.964;6.952;2023-02-11T10:58:30;53.53;;;28.92;;
51304;SDS011;37392;50.964;6.952;2023-02-11T11:01:05;47.20;;;26.98;;
51304;SDS011;37392;50.964;6.952;2023-02-11T11:03:36;53.67;;;26.90;;
51304;SDS011;37392;50.964;6.952;2023-02-11T11:06:14;42.97;;;23.85;;
51304;SDS011;37392;50.964;6.952;2023-02-11T11:08:45;47.90;;;25.00;;
51304;SDS011;37392;50.964;6.952;2023-02-11T11:11:19;46.50;;;26.42;;
51304;SDS011;37392;50.964;6.952;2023-02-11T11:21:40;55.20;;;25.85;;
51304;SDS011;37392;50.964;6.952;2023-02-11T11:24:20;47.38;;;25.83;;
51304;SDS011;37392;50.964;6.952;2023-02-11T11:26:54;43.60;;;23.85;;
51304;SDS011;37392;50.964;6.952;2023-02-11T11:32:24;50.90;;;25.05;;
51304;SDS011;37392;50.964;6.952;2023-02-11T11:34:59;51.28;;;27.90;;
51304;SDS011;37392;50.964;6.952;2023-02-11T11:37:36;45.63;;;24.17;;
51304;SDS011;37392;50.964;6.952;2023-02-11T11:40:16;52.20;;;27.02;;
51304;SDS011;37392;50.964;6.952;2023-02-11T11:45:38;47.95;;;25.85;;
51304;SDS011;37392;50.964;6.952;2023-02-11T11:48:25;50.15;;;26.67;;
51304;SDS011;37392;50.964;6.952;2023-02-11T11:50:56;52.97;;;26.02;;
51304;SDS011;37392;50.964;6.952;2023-02-11T11:56:36;48.80;;;27.33;;
51304;SDS011;37392;50.964;6.952;2023-02-11T11:59:54;46.63;;;24.65;;
51304;SDS011;37392;50.964;6.952;2023-02-11T12:02:41;47.97;;;22.75;;
51304;SDS011;37392;50.964;6.952;2023-02-11T12:05:34;56.15;;;25.27;;
51304;SDS011;37392;50.964;6.952;2023-02-11T12:08:21;51.33;;;25.13;;
51304;SDS011;37392;50.964;6.952;2023-02-11T12:17:13;53.13;;;27.23;;
51304;SDS011;37392;50.964;6.952;2023-02-11T12:20:27;53.17;;;27.20;;
51304;SDS011;37392;50.964;6.952;2023-02-11T12:23:17;56.03;;;27.70;;
51304;SDS011;37392;50.964;6.952;2023-02-11T12:27:10;48.25;;;25.85;;
51304;SDS011;37392;50.964;6.952;2023-02-11T12:32:25;53.15;;;29.38;;
51304;SDS011;37392;50.964;6.952;2023-02-11T12:35:21;54.90;;;27.25;;
51304;SDS011;37392;50.964;6.952;2023-02-11T12:43:37;59.97;;;30.70;;
51304;SDS011;37392;50.964;6.952;2023-02-11T12:55:00;55.25;;;28.48;;
51304;SDS011;37392;50.964;6.952;2023-02-11T12:57:43;66.50;;;32.75;;
51304;SDS011;37392;50.964;6.952;2023-02-11T13:05:36;54.83;;;27.70;;
51304;SDS011;37392;50.964;6.952;2023-02-11T13:08:19;87.38;;;42.40;;
51304;SDS011;37392;50.964;6.952;2023-02-11T13:10:54;57.13;;;29.25;;
51304;SDS011;37392;50.964;6.952;2023-02-11T13:16:03;66.07;;;29.67;;
51304;SDS011;37392;50.964;6.952;2023-02-11T13:19:02;55.58;;;29.15;;
51304;SDS011;37392;50.964;6.952;2023-02-11T13:24:26;56.30;;;28.45;;
51304;SDS011;37392;50.964;6.952;2023-02-11T13:27:46;52.88;;;29.13;;
51304;SDS011;37392;50.964;6.952;2023-02-11T13:30:32;53.75;;;28.40;;
51304;SDS011;37392;50.964;6.952;2023-02-11T13:35:35;56.05;;;29.02;;
51304;SDS011;37392;50.964;6.952;2023-02-11T13:38:03;57.92;;;30.02;;
51304;SDS011;37392;50.964;6.952;2023-02-11T13:41:00;53.83;;;29.27;;
51304;SDS011;37392;50.964;6.952;2023-02-11T13:43:42;53.97;;;29.20;;
51304;SDS011;37392;50.964;6.952;2023-02-11T13:46:11;65.93;;;31.98;;
51304;SDS011;37392;50.964;6.952;2023-02-11T13:48:44;63.20;;;31.30;;
51304;SDS011;37392;50.964;6.952;2023-02-11T13:51:16;65.65;;;32.05;;
51304;SDS011;37392;50.964;6.952;2023-02-11T13:53:59;67.22;;;31.10;;
51304;SDS011;37392;50.964;6.952;2023-02-11T13:59:01;62.53;;;30.15;;
51304;SDS011;37392;50.964;6.952;2023-02-11T14:04:32;52.30;;;28.73;;
51304;SDS011;37392;50.964;6.952;2023-02-11T14:07:23;56.80;;;30.80;;
51304;SDS011;37392;50.964;6.952;2023-02-11T14:16:18;62.67;;;30.35;;
51304;SDS011;37392;50.964;6.952;2023-02-11T14:23:51;57.90;;;30.23;;
51304;SDS011;37392;50.964;6.952;2023-02-11T14:35:05;66.15;;;33.05;;
51304;SDS011;37392;50.964;6.952;2023-02-11T14:38:30;62.28;;;33.03;;
51304;SDS011;37392;50.964;6.952;2023-02-11T14:43:49;64.43;;;31.17;;
51304;SDS011;37392;50.964;6.952;2023-02-11T14:46:20;64.25;;;31.38;;
51304;SDS011;37392;50.964;6.952;2023-02-11T14:48:48;63.92;;;32.53;;
51304;SDS011;37392;50.964;6.952;2023-02-11T14:51:20;69.55;;;32.63;;
51304;SDS011;37392;50.964;6.952;2023-02-11T14:53:51;63.63;;;32.88;;
51304;SDS011;37392;50.964;6.952;2023-02-11T14:56:26;60.33;;;32.70;;
51304;SDS011;37392;50.964;6.952;2023-02-11T14:58:58;72.40;;;33.60;;
51304;SDS011;37392;50.964;6.952;2023-02-11T15:01:34;61.08;;;32.72;;
51304;SDS011;37392;50.964;6.952;2023-02-11T15:04:05;59.22;;;30.88;;
51304;SDS011;37392;50.964;6.952;2023-02-11T15:06:49;62.15;;;31.45;;
51304;SDS011;37392;50.964;6.952;2023-02-11T15:09:17;53.97;;;29.23;;
51304;SDS011;37392;50.964;6.952;2023-02-11T15:11:48;68.63;;;31.15;;
51304;SDS011;37392;50.964;6.952;2023-02-11T15:14:18;60.47;;;31.67;;
51304;SDS011;37392;50.964;6.952;2023-02-11T15:16:48;60.83;;;32.63;;
51304;SDS011;37392;50.964;6.952;2023-02-11T15:19:23;64.45;;;32.67;;
51304;SDS011;37392;50.964;6.952;2023-02-11T15:21:56;61.92;;;30.50;;
51304;SDS011;37392;50.964;6.952;2023-02-11T15:24:27;65.28;;;31.90;;
51304;SDS011;37392;50.964;6.952;2023-02-11T15:26:54;68.53;;;32.50;;
51304;SDS011;37392;50.964;6.952;2023-02-11T15:29:33;61.78;;;30.40;;
51304;SDS011;37392;50.964;6.952;2023-02-11T15:32:12;64.47;;;31.60;;
51304;SDS011;37392;50.964;6.952;2023-02-11T15:34:40;64.35;;;31.95;;
51304;SDS011;37392;50.964;6.952;2023-02-11T15:37:09;66.50;;;32.78;;
51304;SDS011;37392;50.964;6.952;2023-02-11T15:39:44;69.55;;;33.70;;
51304;SDS011;37392;50.964;6.952;2023-02-11T15:42:26;67.07;;;31.70;;
51304;SDS011;37392;50.964;6.952;2023-02-11T15:45:20;74.55;;;32.65;;
51304;SDS011;37392;50.964;6.952;2023-02-11T15:47:45;69.10;;;33.97;;
51304;SDS011;37392;50.964;6.952;2023-02-11T15:50:18;67.57;;;33.03;;
51304;SDS011;37392;50.964;6.952;2023-02-11T15:52:51;56.80;;;30.27;;
51304;SDS011;37392;50.964;6.952;2023-02-11T15:55:19;63.50;;;32.30;;
51304;SDS011;37392;50.964;6.952;2023-02-11T15:57:52;65.30;;;31.38;;
51304;SDS011;37392;50.964;6.952;2023-02-11T16:00:21;60.10;;;31.00;;
51304;SDS011;37392;50.964;6.952;2023-02-11T16:02:54;67.88;;;33.67;;
51304;SDS011;37392;50.964;6.952;2023-02-11T16:05:28;68.53;;;34.40;;
51304;SDS011;37392;50.964;6.952;2023-02-11T16:11:03;67.63;;;31.38;;
51304;SDS011;37392;50.964;6.952;2023-02-11T16:13:42;73.10;;;34.45;;
51304;SDS011;37392;50.964;6.952;2023-02-11T16:16:17;66.15;;;32.20;;
51304;SDS011;37392;50.964;6.952;2023-02-11T16:18:52;73.32;;;32.25;;
51304;SDS011;37392;50.964;6.952;2023-02-11T16:21:22;67.22;;;33.65;;
51304;SDS011;37392;50.964;6.952;2023-02-11T16:24:03;66.18;;;31.42;;
51304;SDS011;37392;50.964;6.952;2023-02-11T16:26:38;76.95;;;34.55;;
51304;SDS011;37392;50.964;6.952;2023-02-11T16:29:11;71.65;;;32.65;;
51304;SDS011;37392;50.964;6.952;2023-02-11T16:31:45;86.13;;;42.38;;
51304;SDS011;37392;50.964;6.952;2023-02-11T16:34:14;79.55;;;38.50;;
51304;SDS011;37392;50.964;6.952;2023-02-11T16:36:47;74.65;;;34.88;;
51304;SDS011;37392;50.964;6.952;2023-02-11T16:39:15;67.18;;;35.17;;
51304;SDS011;37392;50.964;6.952;2023-02-11T16:41:42;65.45;;;33.63;;
51304;SDS011;37392;50.964;6.952;2023-02-11T16:44:08;72.97;;;34.25;;
51304;SDS011;37392;50.964;6.952;2023-02-11T16:46:34;59.25;;;31.92;;
51304;SDS011;37392;50.964;6.952;2023-02-11T16:49:14;73.53;;;34.17;;
51304;SDS011;37392;50.964;6.952;2023-02-11T16:51:53;83.65;;;41.78;;
51304;SDS011;37392;50.964;6.952;2023-02-11T16:54:22;77.30;;;38.73;;
51304;SDS011;37392;50.964;6.952;2023-02-11T16:56:48;83.00;;;37.40;;
51304;SDS011;37392;50.964;6.952;2023-02-11T16:59:14;73.80;;;35.70;;
51304;SDS011;37392;50.964;6.952;2023-02-11T17:01:40;68.13;;;34.38;;
51304;SDS011;37392;50.964;6.952;2023-02-11T17:04:09;69.00;;;33.45;;
51304;SDS011;37392;50.964;6.952;2023-02-11T17:06:54;75.22;;;39.58;;